createdAt,value
2023-03-10T00:06:14.096Z,38.46
2023-03-10T00:16:15.356Z,38.64
2023-03-10T00:26:16.690Z,38.51
2023-03-10T00:36:17.937Z,38.24
2023-03-10T00:46:19.254Z,37.82
2023-03-10T00:56:20.576Z,37.88
2023-03-10T01:06:21.850Z,37.83
2023-03-10T01:16:23.239Z,37.95
2023-03-10T01:26:24.566Z,38.16
2023-03-10T01:36:25.872Z,38.49
2023-03-10T01:46:27.173Z,38.82
2023-03-10T01:56:28.472Z,38.82
2023-03-10T02:06:29.772Z,39.41
2023-03-10T02:16:31.128Z,39.08
2023-03-10T02:26:32.441Z,40.06
2023-03-10T02:36:33.689Z,40.45
2023-03-10T02:46:34.944Z,40.50
2023-03-10T02:56:36.183Z,40.15
2023-03-10T03:06:37.417Z,40.66
2023-03-10T03:16:38.764Z,40.93
2023-03-10T03:26:40.091Z,41.28
2023-03-10T03:36:41.354Z,40.67
2023-03-10T03:46:42.706Z,41.06
2023-03-10T03:56:43.980Z,41.72
2023-03-10T04:06:45.227Z,42.02
2023-03-10T04:16:46.516Z,41.82
2023-03-10T04:26:47.768Z,41.88
2023-03-10T04:36:49.008Z,42.17
2023-03-10T04:46:50.276Z,42.69
2023-03-10T04:56:53.064Z,42.14
2023-03-10T05:06:54.353Z,42.95
2023-03-10T05:16:55.610Z,43.96
2023-03-10T05:26:56.887Z,43.63
2023-03-10T05:36:58.147Z,43.13
2023-03-10T05:46:59.522Z,44.27
2023-03-10T05:57:00.809Z,44.54
2023-03-10T06:07:02.146Z,44.47
2023-03-10T06:17:03.400Z,44.34
2023-03-10T06:27:04.623Z,44.35
2023-03-10T06:37:05.970Z,44.41
2023-03-10T06:47:07.312Z,44.30
2023-03-10T06:57:08.601Z,42.98
2023-03-10T07:07:09.856Z,43.35
2023-03-10T07:17:11.199Z,45.19
2023-03-10T07:27:12.464Z,45.89
2023-03-10T07:37:13.729Z,45.85
2023-03-10T07:47:15.048Z,47.36
2023-03-10T07:57:16.432Z,48.22
2023-03-10T08:07:17.677Z,49.09
2023-03-10T08:17:18.930Z,49.44
2023-03-10T08:27:20.161Z,50.21
2023-03-10T08:37:21.435Z,50.92
2023-03-10T08:47:22.696Z,50.45
2023-03-10T08:57:23.994Z,48.88
2023-03-10T09:07:25.227Z,51.80
2023-03-10T09:17:26.486Z,51.18
2023-03-10T09:27:28.003Z,51.47
2023-03-10T09:37:29.252Z,50.67
2023-03-10T09:47:30.548Z,51.60
2023-03-10T09:57:31.812Z,50.92
2023-03-10T10:07:33.049Z,48.20
2023-03-10T10:17:37.292Z,48.59
2023-03-10T10:27:42.932Z,48.56
2023-03-10T10:37:44.157Z,48.22
2023-03-10T10:47:45.433Z,47.67
2023-03-10T10:57:47.010Z,48.58
2023-03-10T11:07:48.253Z,48.74
2023-03-10T11:17:49.488Z,48.70
2023-03-10T11:27:50.762Z,47.73
2023-03-10T11:37:52.035Z,47.96
2023-03-10T11:47:53.320Z,48.54
2023-03-10T11:57:54.563Z,48.16
2023-03-10T12:07:55.837Z,49.18
2023-03-10T12:17:57.081Z,48.83
2023-03-10T12:27:58.384Z,49.00
2023-03-10T12:37:59.632Z,47.65
2023-03-10T12:48:00.903Z,49.60
2023-03-10T12:58:02.150Z,49.86
2023-03-10T13:08:03.451Z,50.11
2023-03-10T13:18:04.729Z,50.12
2023-03-10T13:38:33.564Z,50.14
2023-03-10T13:48:40.116Z,50.04
2023-03-10T13:58:44.265Z,49.77
2023-03-10T14:08:53.118Z,48.71
2023-03-10T14:19:00.999Z,49.59
2023-03-10T14:29:11.121Z,47.86
2023-03-10T14:39:19.283Z,48.12
2023-03-10T14:59:49.191Z,46.50
2023-03-10T15:09:54.586Z,44.81
2023-03-10T15:20:00.611Z,44.25
2023-03-10T15:30:01.866Z,43.52
2023-03-10T15:40:07.072Z,42.66
2023-03-10T15:50:15.035Z,42.09
2023-03-10T16:00:24.015Z,41.36
2023-03-10T16:10:34.982Z,40.93
2023-03-10T16:20:39.991Z,40.48
2023-03-10T16:30:50.310Z,39.91
2023-03-10T16:40:58.031Z,39.79
2023-03-10T16:51:08.515Z,39.63
2023-03-10T17:11:30.970Z,39.61
2023-03-10T17:21:32.209Z,39.42
2023-03-10T17:31:33.525Z,39.26
2023-03-10T17:41:34.825Z,39.04
2023-03-10T17:51:36.063Z,39.02
2023-03-10T18:01:37.344Z,38.55
2023-03-10T18:11:39.034Z,38.66
2023-03-10T18:21:40.314Z,38.55
2023-03-10T18:31:41.577Z,38.26
2023-03-10T18:41:42.836Z,38.29
2023-03-10T18:51:44.066Z,38.11
2023-03-10T19:01:45.418Z,38.18
2023-03-10T19:11:46.678Z,38.04
2023-03-10T19:21:47.922Z,37.79
2023-03-10T19:31:49.230Z,37.70
2023-03-10T19:41:50.522Z,37.39
2023-03-10T19:51:51.756Z,37.71
2023-03-10T20:01:53.014Z,37.17
2023-03-10T20:11:54.275Z,37.10
2023-03-10T20:21:55.537Z,37.11
2023-03-10T20:31:56.830Z,37.16
2023-03-10T20:41:58.153Z,36.55
2023-03-10T20:51:59.403Z,36.65
2023-03-10T21:02:00.649Z,36.77
2023-03-10T21:12:01.931Z,36.69
2023-03-10T21:22:03.545Z,36.33
2023-03-10T21:32:04.829Z,35.92
2023-03-10T21:42:06.183Z,35.50
2023-03-10T21:52:07.483Z,35.46
2023-03-10T22:02:08.780Z,35.00
2023-03-10T22:12:10.008Z,34.88
2023-03-10T22:22:11.281Z,34.40
2023-03-10T22:32:12.596Z,34.68
2023-03-10T22:42:13.863Z,34.27
2023-03-10T22:52:15.249Z,33.90
2023-03-10T23:02:16.548Z,33.91
2023-03-10T23:12:17.846Z,33.68
2023-03-10T23:22:19.112Z,33.18
2023-03-10T23:32:20.432Z,33.01
2023-03-10T23:42:21.724Z,32.91
2023-03-10T23:52:22.973Z,32.92
